Terminal Aerodrome Forecast
Issued by NWS

Home | Current Version | Previous Version | Text Only | Print | Product List | Glossary Off
Versions: 1 2 3 4 5 6 7 8 9 10 11 12 13 14 15 16 17 18 19

535
FTUS41 KCLE 231733
TAFFDY
TAF
KFDY 231733Z 2318/2418 13010KT P6SM SCT250
     FM240400 16010KT P6SM -SHRA OVC040
     FM240800 19014KT P6SM BKN050
     FM241400 21015G25KT P6SM BKN030=

USA.gov is the U.S. government's official web portal to all federal, state and local government web resources and services.